Bee House, Texas
Current Conditions -  °F | °C
As of 2:15 PM on Friday 19 Dec 2014 (Local Time) from KMNZ Reporting Station
Overcast Overcast  
Wind Chill: 45°   Ceiling: 500
Heat Index: 48°   Visibility: 7mi
Dew Point: 48°   Wind: 7mph
Humidity: 100%   Direction: 360°N
Pressure: 30.14"   Gusts: NA
Location:  31.463°N, 98.243°W
Report Text: KMNZ 192015Z AUTO 36006KT 7SM OVC005 09/09 A3014 RMK AO2 T00900090
Loading
Personal Weather Stations






























Interactive Weather Map New forecast layout! Learn more

10-Day Weather Forecast

Advertisements
Track Severe Weather on mobile